KMHE/MHE METAR and TAF weather

Enter ICAO airport designator
Station Type Date Time Source
KMHE METAR 2021/09/28 03:53 UTC NOAA

KMHE 280353Z AUTO 15006KT 10SM CLR 19/11 A2985 RMK AO2 SLP101 T01890106


Station Type Date Time Source
KMHE Decoded METAR 2021/09/28 03:53 UTC NOAA

MITCHELL MUNICIPAL AIRPORT, SD, United States (KMHE) 43-46N 98-02W
Sep 27, 2021 - 11:53 PM EDT / 2021.09.28 0353 UTC
Wind: from the SSE (150 degrees) at 7 MPH (6 KT):0
Visibility: 10 mile(s):0
Sky conditions: clear
Temperature: 66.0 F (18.9 C)
Dew Point: 51.1 F (10.6 C)
Relative Humidity: 58%
Pressure (altimeter): 29.85 in. Hg (1010 hPa)
ob: KMHE 280353Z AUTO 15006KT 10SM CLR 19/11 A2985 RMK AO2 SLP101 T01890106
cycle: 4

Station Type Date Time Source
KMHE TAF UTC NOAA

Error!

Example: see airport list